createdAt,value
2023-04-21T00:02:17.731Z,3.94
2023-04-21T00:04:47.390Z,4.00
2023-04-21T00:07:16.973Z,3.86
2023-04-21T00:09:46.125Z,4.07
2023-04-21T00:12:15.529Z,4.05
2023-04-21T00:14:48.722Z,3.85
2023-04-21T00:17:19.639Z,3.65
2023-04-21T00:19:49.261Z,3.76
2023-04-21T00:22:19.478Z,3.68
2023-04-21T00:24:48.353Z,3.72
2023-04-21T00:27:19.149Z,3.51
2023-04-21T00:29:49.010Z,3.43
2023-04-21T00:32:19.897Z,3.71
2023-04-21T00:34:48.949Z,3.81
2023-04-21T00:37:18.134Z,3.67
2023-04-21T00:39:47.025Z,3.81
2023-04-21T00:42:17.961Z,3.78
2023-04-21T00:44:46.957Z,3.69
2023-04-21T00:47:16.386Z,3.86
2023-04-21T00:58:48.168Z,3.64
2023-04-21T01:01:17.710Z,3.61
2023-04-21T01:08:12.495Z,3.83
2023-04-21T01:10:41.695Z,3.58
2023-04-21T01:17:31.908Z,3.28
2023-04-21T01:20:04.274Z,3.45
2023-04-21T01:22:34.911Z,3.65
2023-04-21T01:29:10.477Z,3.18
2023-04-21T01:31:39.897Z,3.10
2023-04-21T01:38:29.054Z,2.96
2023-04-21T01:40:58.060Z,2.87
2023-04-21T01:47:45.451Z,3.11
2023-04-21T01:59:00.126Z,3.20
2023-04-21T02:01:29.382Z,3.42
2023-04-21T02:08:16.143Z,3.05
2023-04-21T02:10:50.478Z,3.08
2023-04-21T02:13:19.563Z,2.95
2023-04-21T02:15:51.618Z,2.82
2023-04-21T02:18:26.253Z,2.84
2023-04-21T02:20:55.341Z,2.72
2023-04-21T02:23:24.340Z,2.68
2023-04-21T02:25:53.534Z,2.67
2023-04-21T02:28:22.621Z,2.79
2023-04-21T02:30:53.393Z,2.85
2023-04-21T02:33:22.620Z,2.73
2023-04-21T02:35:51.856Z,2.57
2023-04-21T02:38:20.947Z,2.58
2023-04-21T02:40:50.959Z,2.67
2023-04-21T02:43:20.068Z,2.66
2023-04-21T02:45:49.257Z,2.61
2023-04-21T02:48:23.316Z,2.80
2023-04-21T02:59:23.429Z,2.73
2023-04-21T03:01:52.625Z,2.71
2023-04-21T03:08:42.739Z,2.54
2023-04-21T03:11:12.348Z,2.54
2023-04-21T03:13:41.343Z,2.46
2023-04-21T03:16:10.600Z,2.33
2023-04-21T03:18:39.524Z,2.34
2023-04-21T03:25:22.889Z,2.15
2023-04-21T03:27:51.972Z,2.03
2023-04-21T03:34:27.440Z,2.25
2023-04-21T03:36:57.559Z,2.18
2023-04-21T03:39:26.986Z,2.19
2023-04-21T03:41:58.107Z,2.01
2023-04-21T03:44:29.126Z,2.07
2023-04-21T03:46:58.440Z,1.99
2023-04-21T03:49:27.741Z,1.98
2023-04-21T03:51:56.837Z,2.00
2023-04-21T03:54:26.036Z,2.15
2023-04-21T04:01:10.008Z,2.28
2023-04-21T04:03:39.850Z,2.35
2023-04-21T04:10:27.517Z,2.62
2023-04-21T04:12:56.771Z,2.60
2023-04-21T04:19:45.748Z,2.54
2023-04-21T04:26:27.786Z,2.17
2023-04-21T04:28:57.778Z,2.13
2023-04-21T04:35:41.134Z,2.83
2023-04-21T04:38:10.120Z,3.00
2023-04-21T04:44:51.735Z,3.91
2023-04-21T04:51:41.751Z,5.75
2023-04-21T04:54:16.269Z,6.40
2023-04-21T05:01:14.829Z,7.51
2023-04-21T05:03:44.351Z,7.48
2023-04-21T05:10:33.758Z,8.43
2023-04-21T05:17:15.920Z,9.50
2023-04-21T05:19:45.196Z,10.10
2023-04-21T05:26:35.110Z,10.57
2023-04-21T05:29:04.513Z,11.14
2023-04-21T05:35:52.670Z,11.90
2023-04-21T05:42:35.717Z,13.22
2023-04-21T05:45:05.149Z,13.66
2023-04-21T05:51:46.737Z,13.82
2023-04-21T05:54:17.101Z,13.23
2023-04-21T06:01:06.763Z,14.67
2023-04-21T06:07:49.693Z,15.91
2023-04-21T06:10:19.197Z,16.53
2023-04-21T06:17:18.641Z,17.33
2023-04-21T06:19:53.361Z,16.69
2023-04-21T06:26:42.029Z,18.16
2023-04-21T06:29:11.963Z,17.02
2023-04-21T06:31:41.602Z,18.11
2023-04-21T06:34:12.179Z,17.83
2023-04-21T06:36:42.106Z,18.08
2023-04-21T06:39:11.294Z,16.76
2023-04-21T06:41:40.690Z,15.09
2023-04-21T06:44:14.174Z,14.98
2023-04-21T06:46:43.737Z,14.61
2023-04-21T06:49:14.302Z,14.23
2023-04-21T06:51:43.729Z,14.79
2023-04-21T06:54:13.021Z,14.59
2023-04-21T06:56:43.554Z,14.18
2023-04-21T06:59:12.848Z,14.08
2023-04-21T07:01:42.036Z,14.22
2023-04-21T07:08:31.030Z,14.35
2023-04-21T07:11:00.135Z,14.48
2023-04-21T07:17:53.896Z,14.62
2023-04-21T07:20:23.123Z,14.81
2023-04-21T07:27:07.196Z,14.51
2023-04-21T07:29:38.016Z,14.45
2023-04-21T07:32:07.432Z,14.14
2023-04-21T07:38:48.939Z,14.29
2023-04-21T07:41:18.569Z,14.39
2023-04-21T07:48:08.046Z,14.57
2023-04-21T07:50:37.331Z,14.46
2023-04-21T07:57:32.565Z,15.07
2023-04-21T08:04:22.609Z,14.87
2023-04-21T08:06:53.742Z,15.17
2023-04-21T08:13:47.716Z,15.00
2023-04-21T08:16:17.563Z,15.25
2023-04-21T08:22:54.280Z,15.11
2023-04-21T08:25:24.034Z,15.47
2023-04-21T08:27:53.233Z,15.85
2023-04-21T08:30:22.598Z,15.93
2023-04-21T08:32:51.801Z,15.98
2023-04-21T08:35:21.059Z,15.51
2023-04-21T08:37:52.265Z,15.81
2023-04-21T08:44:36.033Z,15.62
2023-04-21T08:47:05.849Z,15.58
2023-04-21T08:58:24.232Z,16.23
2023-04-21T09:05:13.170Z,16.50
2023-04-21T09:07:42.631Z,16.21
2023-04-21T09:14:34.698Z,16.02
2023-04-21T09:17:04.452Z,15.83
2023-04-21T09:23:48.462Z,15.99
2023-04-21T09:26:18.883Z,16.50
2023-04-21T09:33:00.835Z,15.50
2023-04-21T09:35:30.825Z,16.07
2023-04-21T09:38:00.143Z,15.82
2023-04-21T09:53:36.568Z,16.79
2023-04-21T09:56:07.290Z,16.59
2023-04-21T09:58:43.562Z,15.92
2023-04-21T10:01:14.407Z,16.50
2023-04-21T10:03:46.172Z,16.13
2023-04-21T10:06:16.074Z,16.50
2023-04-21T10:08:46.918Z,16.18
2023-04-21T10:11:16.820Z,15.86
2023-04-21T10:13:46.211Z,15.86
2023-04-21T10:16:20.118Z,15.98
2023-04-21T10:18:54.139Z,16.84
2023-04-21T10:21:26.201Z,17.01
2023-04-21T10:23:57.545Z,17.43
2023-04-21T10:26:29.401Z,17.33
2023-04-21T10:29:00.557Z,17.05
2023-04-21T10:31:34.006Z,16.50
2023-04-21T10:38:36.342Z,16.58
2023-04-21T10:45:32.912Z,16.47
2023-04-21T10:48:04.389Z,16.59
2023-04-21T10:59:05.341Z,17.56
2023-04-21T11:01:36.688Z,17.09
2023-04-21T11:04:06.940Z,17.02
2023-04-21T11:10:56.007Z,18.58
2023-04-21T11:13:27.044Z,18.68
2023-04-21T11:20:11.817Z,16.95
2023-04-21T11:22:41.328Z,16.57
2023-04-21T11:29:30.506Z,17.41
2023-04-21T11:32:08.904Z,17.52
2023-04-21T11:34:39.864Z,17.25
2023-04-21T11:37:11.823Z,17.79
2023-04-21T11:39:44.335Z,17.82
2023-04-21T11:42:13.495Z,17.37
2023-04-21T11:44:44.009Z,17.88
2023-04-21T11:47:17.218Z,17.53
2023-04-21T11:49:48.177Z,17.38
2023-04-21T11:52:29.305Z,16.81
2023-04-21T11:55:00.459Z,16.82
2023-04-21T11:57:31.120Z,16.83
2023-04-21T12:00:00.941Z,16.83
2023-04-21T12:02:31.693Z,16.39
2023-04-21T12:05:02.759Z,16.34
2023-04-21T12:07:34.236Z,16.45
2023-04-21T12:10:04.449Z,16.21
2023-04-21T12:12:35.314Z,16.06
2023-04-21T12:15:05.616Z,16.14
2023-04-21T12:17:40.197Z,16.24
2023-04-21T12:20:11.589Z,16.05
2023-04-21T12:22:42.215Z,16.25
2023-04-21T12:25:11.825Z,16.52
2023-04-21T12:27:51.479Z,16.82
2023-04-21T12:34:10.817Z,17.69
2023-04-21T12:41:00.148Z,18.29
2023-04-21T12:43:29.336Z,18.68
2023-04-21T12:50:16.177Z,18.69
2023-04-21T12:52:45.365Z,18.16
2023-04-21T12:55:14.977Z,17.79
2023-04-21T12:57:45.602Z,18.04
2023-04-21T13:00:16.640Z,17.68
2023-04-21T13:02:46.190Z,18.39
2023-04-21T13:05:15.349Z,18.77
2023-04-21T13:07:44.537Z,18.77
2023-04-21T13:10:18.150Z,18.10
2023-04-21T13:12:49.190Z,18.65
2023-04-21T13:15:18.781Z,18.34
2023-04-21T13:17:47.894Z,18.76
2023-04-21T13:20:19.523Z,17.95
2023-04-21T13:22:48.933Z,17.28
2023-04-21T13:25:18.133Z,17.45
2023-04-21T13:27:48.963Z,17.16
2023-04-21T13:30:18.979Z,16.85
2023-04-21T13:32:48.223Z,17.26
2023-04-21T13:35:18.517Z,16.82
2023-04-21T13:37:47.897Z,16.69
2023-04-21T13:40:16.787Z,16.85
2023-04-21T13:42:46.289Z,17.45
2023-04-21T13:45:16.969Z,17.24
2023-04-21T13:47:46.809Z,17.17
2023-04-21T13:50:16.137Z,16.96
2023-04-21T14:01:41.933Z,17.51
2023-04-21T14:04:11.748Z,17.98
2023-04-21T14:11:07.154Z,17.47
2023-04-21T14:13:47.787Z,17.49
2023-04-21T14:16:21.478Z,18.27
2023-04-21T14:23:12.267Z,18.39
2023-04-21T14:25:41.450Z,18.07
2023-04-21T14:32:29.018Z,17.02
2023-04-21T14:34:59.519Z,17.05
2023-04-21T14:41:48.200Z,16.79
2023-04-21T14:44:19.220Z,16.93
2023-04-21T14:46:57.526Z,17.11
2023-04-21T14:49:38.031Z,17.38
2023-04-21T14:56:26.112Z,16.96
2023-04-21T15:03:15.043Z,16.82
2023-04-21T15:05:44.394Z,16.77
2023-04-21T15:12:33.921Z,17.36
2023-04-21T15:15:04.385Z,17.57
2023-04-21T15:21:54.804Z,17.14
2023-04-21T15:24:23.791Z,16.78
2023-04-21T15:26:53.402Z,16.57
2023-04-21T15:29:23.003Z,16.62
2023-04-21T15:31:52.098Z,16.59
2023-04-21T15:34:21.295Z,16.71
2023-04-21T15:36:50.472Z,17.04
2023-04-21T15:39:21.109Z,17.04
2023-04-21T15:41:50.798Z,16.96
2023-04-21T15:48:26.565Z,17.17
2023-04-21T15:50:55.915Z,16.99
2023-04-21T15:57:39.258Z,16.66
2023-04-21T16:00:10.794Z,16.80
2023-04-21T16:02:40.037Z,17.00
2023-04-21T16:05:10.907Z,16.83
2023-04-21T16:07:40.571Z,16.92
2023-04-21T16:10:11.589Z,17.01
2023-04-21T16:12:44.792Z,17.06
2023-04-21T16:15:23.670Z,17.27
2023-04-21T16:21:05.206Z,17.38
2023-04-21T16:27:42.748Z,17.65
2023-04-21T16:30:12.490Z,17.73
2023-04-21T16:32:41.791Z,18.10
2023-04-21T16:35:12.082Z,18.35
2023-04-21T16:37:43.281Z,18.62
2023-04-21T16:40:13.530Z,17.77
2023-04-21T16:42:44.353Z,17.80
2023-04-21T16:49:25.838Z,17.51
2023-04-21T16:51:55.668Z,17.76
2023-04-21T17:03:23.041Z,17.29
2023-04-21T17:05:52.588Z,16.30
2023-04-21T17:08:22.007Z,15.82
2023-04-21T17:10:51.282Z,15.64
2023-04-21T17:13:20.371Z,15.64
2023-04-21T17:15:49.467Z,15.49
2023-04-21T17:18:19.097Z,15.46
2023-04-21T17:20:55.754Z,15.37
2023-04-21T17:23:25.354Z,15.31
2023-04-21T17:25:54.456Z,15.17
2023-04-21T17:28:23.548Z,15.05
2023-04-21T17:31:00.293Z,14.99
2023-04-21T17:33:36.643Z,14.93
2023-04-21T17:36:07.815Z,14.86
2023-04-21T17:38:37.423Z,14.63
2023-04-21T17:41:07.950Z,14.55
2023-04-21T17:43:36.955Z,14.41
2023-04-21T17:46:09.251Z,14.41
2023-04-21T17:48:38.307Z,14.29
2023-04-21T17:51:09.657Z,14.17
2023-04-21T17:53:39.158Z,13.97
2023-04-21T17:56:08.871Z,13.82
2023-04-21T17:58:38.266Z,13.75
2023-04-21T18:01:08.101Z,13.81
2023-04-21T18:03:37.853Z,13.62
2023-04-21T18:06:10.977Z,13.59
2023-04-21T18:08:40.484Z,13.37
2023-04-21T18:11:11.729Z,13.25
2023-04-21T18:13:41.348Z,13.05
2023-04-21T18:20:28.780Z,13.09
2023-04-21T18:22:59.529Z,12.90
2023-04-21T18:29:46.567Z,12.83
2023-04-21T18:32:15.749Z,12.66
2023-04-21T18:39:04.633Z,12.41
2023-04-21T18:41:34.131Z,12.15
2023-04-21T18:44:03.195Z,12.26
2023-04-21T18:50:40.892Z,12.02
2023-04-21T18:53:12.610Z,11.77
2023-04-21T19:11:57.058Z,11.21
2023-04-21T19:14:29.887Z,11.20
2023-04-21T19:21:31.525Z,11.15
2023-04-21T19:24:00.720Z,11.28
2023-04-21T19:30:41.814Z,11.18
2023-04-21T19:33:11.367Z,11.03
2023-04-21T19:40:00.301Z,10.68
2023-04-21T19:42:30.017Z,10.56
2023-04-21T19:44:59.106Z,10.36
2023-04-21T19:47:28.307Z,10.24
2023-04-21T19:49:57.303Z,10.05
2023-04-21T19:52:26.489Z,10.01
2023-04-21T19:54:55.996Z,9.92
2023-04-21T19:57:26.730Z,9.87
2023-04-21T19:59:55.925Z,9.74
2023-04-21T20:02:25.406Z,9.69
2023-04-21T20:04:55.225Z,9.56
2023-04-21T20:11:37.058Z,9.36
2023-04-21T20:14:07.581Z,9.31
2023-04-21T20:20:55.470Z,9.21
2023-04-21T20:23:24.636Z,9.14
2023-04-21T20:30:20.486Z,8.95
2023-04-21T20:32:49.693Z,8.86
2023-04-21T20:35:18.976Z,8.86
2023-04-21T20:42:13.560Z,8.67
2023-04-21T20:44:43.713Z,8.58
2023-04-21T20:51:42.128Z,8.15
2023-04-21T20:54:11.314Z,7.85
2023-04-21T21:00:58.939Z,7.87
2023-04-21T21:03:28.506Z,7.90
2023-04-21T21:05:57.868Z,7.53
2023-04-21T21:08:28.297Z,7.43
2023-04-21T21:10:57.493Z,7.37
2023-04-21T21:13:26.481Z,7.34
2023-04-21T21:15:55.563Z,7.35
2023-04-21T21:18:24.774Z,7.43
2023-04-21T21:20:54.688Z,7.20
2023-04-21T21:23:23.864Z,7.10
2023-04-21T21:25:54.103Z,6.94
2023-04-21T21:32:41.809Z,6.87
2023-04-21T21:35:12.206Z,6.85
2023-04-21T21:42:03.426Z,6.64
2023-04-21T21:44:36.636Z,6.98
2023-04-21T21:51:24.048Z,6.53
2023-04-21T21:58:06.493Z,6.39
2023-04-21T22:00:38.467Z,6.24
2023-04-21T22:07:26.912Z,6.26
2023-04-21T22:09:59.940Z,6.35
2023-04-21T22:16:50.852Z,6.27
2023-04-21T22:19:20.373Z,6.28
2023-04-21T22:21:49.974Z,6.23
2023-04-21T22:24:19.056Z,6.14
2023-04-21T22:26:49.679Z,6.03
2023-04-21T22:29:19.183Z,5.84
2023-04-21T22:31:49.962Z,5.96
2023-04-21T22:38:46.166Z,5.65
2023-04-21T22:41:15.568Z,5.52
2023-04-21T22:48:11.765Z,5.36
2023-04-21T22:50:44.407Z,5.38
2023-04-21T22:57:32.858Z,5.28
2023-04-21T23:00:02.168Z,5.34
2023-04-21T23:02:31.608Z,5.61
2023-04-21T23:05:02.228Z,5.70
2023-04-21T23:07:32.119Z,5.68
2023-04-21T23:10:01.517Z,5.30
2023-04-21T23:12:30.614Z,5.37
2023-04-21T23:15:00.004Z,5.06
2023-04-21T23:17:29.349Z,4.88
2023-04-21T23:19:58.507Z,4.92
2023-04-21T23:22:28.938Z,4.87
2023-04-21T23:29:15.975Z,5.10
2023-04-21T23:31:45.135Z,5.06
2023-04-21T23:38:42.733Z,4.91
2023-04-21T23:41:12.053Z,4.77
2023-04-21T23:47:53.090Z,4.84
2023-04-21T23:50:22.351Z,4.81
2023-04-21T23:52:51.442Z,4.93
2023-04-21T23:55:21.970Z,4.79
2023-04-21T23:57:51.166Z,4.83
